Horizon Anchorage — KGTX — position and weather

sailwx.info

Track history (hours):
 
Tides and Currents Weather Stations Pressure Air Temp Water Temp Dewpoint Dewpoint Depression Visibility Wind Speed Wind Dir Waves Ship Positions

Horizon Anchorage

Owner: HORIZON LINES LLC, RALEIGH, NC. More information available from US FCC via Universal Licensing System and Coast Guard Vessel Documentation Center.

Last reported at 2014-Oct-25 20:06 UTC. Time now 2014-Oct-25 22:45 UTC.
Position N 49°31' W 127°15'.

Type: Cargo ship. MMSI: 366557000.

Date/timePositionNaut miles runAvg speedWind from/ knotsBaromVisibWave heightAir tempDewpointWater temp
2014-Oct-25 20:06N 49°31' W 127°15'1088.0
2014-Oct-25 20:00N 49°24' W 127°06'4 7.0 340 / 19992.5 5.4 2.011.5 8.713.9
2014-Oct-25 19:29N 49°24' W 127°00'1819.5
2014-Oct-25 18:34N 49°13' W 126°39'2019.7
2014-Oct-25 17:33N 49°01' W 126°14'2020.0
2014-Oct-25 16:34N 48°49' W 125°50'2020.2
2014-Oct-25 15:34N 48°40' W 125°23'2020.4
2014-Oct-25 14:34N 48°33' W 124°54'1919.2
2014-Oct-25 13:34N 48°26' W 124°27'1919.1
2014-Oct-25 12:33N 48°19' W 124°00'1818.1
2014-Oct-25 11:33N 48°15' W 123°34'1212.3
2014-Oct-25 10:34N 48°10' W 123°17'1717.1
2014-Oct-25 09:33N 48°12' W 122°52'1616.1
2014-Oct-25 08:34N 47°60' W 122°36'1818.4
2014-Oct-25 07:33N 47°42' W 122°27'1918.9
2014-Oct-25 06:34N 47°24' W 122°22'8 8.0
2014-Oct-25 05:33N 47°16' W 122°25'0 0.0
2014-Oct-25 04:33N 47°16' W 122°25'0 0.0
2014-Oct-25 03:33N 47°16' W 122°25'0 0.0
2014-Oct-25 02:33N 47°16' W 122°25'0 0.0
2014-Oct-25 01:33N 47°16' W 122°25'0 0.0
2014-Oct-25 00:33N 47°16' W 122°25'0 0.0
2014-Oct-24 23:33N 47°16' W 122°25'0 0.0
2014-Oct-24 22:33N 47°16' W 122°25'0 0.0
2014-Oct-24 21:33N 47°16' W 122°25'0 0.0
2014-Oct-24 20:32N 47°16' W 122°25'0 0.0
2014-Oct-24 18:32N 47°16' W 122°25'0 0.0
2014-Oct-24 17:32N 47°16' W 122°25'0 0.0
2014-Oct-24 16:33N 47°16' W 122°25'0 0.0
2014-Oct-24 15:32N 47°16' W 122°25'0 0.0
2014-Oct-24 14:33N 47°16' W 122°25'0 0.0
2014-Oct-24 13:33N 47°16' W 122°25'0 0.0
2014-Oct-24 12:33N 47°16' W 122°25'0 0.0
2014-Oct-24 11:33N 47°16' W 122°25'4 4.5
2014-Oct-24 10:34N 47°20' W 122°27'1717.0
2014-Oct-24 09:34N 47°37' W 122°28'1818.5
2014-Oct-24 08:34N 47°56' W 122°31'1919.0
2014-Oct-24 07:34N 48°11' W 122°49'1918.8
2014-Oct-24 06:34N 48°11' W 123°17'1313.3
2014-Oct-24 05:33N 48°13' W 123°36'1515.3
2014-Oct-24 04:33N 48°15' W 123°59'1615.5
2014-Oct-24 03:33N 48°21' W 124°21'1414.0
2014-Oct-24 02:33N 48°27' W 124°40'1514.6
2014-Oct-24 01:33N 48°29' W 125°01'1413.8
2014-Oct-24 00:33N 48°34' W 125°21'611.2
2014-Oct-24 00:00N 48°36' W 125°30'819.2 160 / 51009.6 5.4 2.013.1 8.515.2
2014-Oct-23 23:33N 48°42' W 125°39'1616.1
2014-Oct-23 22:33N 48°51' W 125°59'1918.5
2014-Oct-23 21:33N 49°01' W 126°23'5 8.5
2014-Oct-23 21:00N 49°06' W 126°24'1432.5 130 / 91007.010.8 2.512.5 8.814.0
2014-Oct-23 20:33N 49°11' W 126°44'1716.6
2014-Oct-23 19:34N 49°20' W 127°05'1912.0
2014-Oct-23 18:00N 49°30' W 127°30'23519.6 240 / 181004.510.8 1.013.0 9.414.2
2014-Oct-23 06:00N 51°30' W 132°48'12621.0 220 / 22993.010.8 1.011.0 3.813.6
2014-Oct-23 00:00N 52°30' W 135°48'10016.6 110 / 19987.5 5.4 3.511.5 8.713.1
2014-Oct-22 18:00N 53°12' W 138°18'23919.9 220 / 15989.710.8 1.012.0 2.511.5
2014-Oct-22 06:00N 55°24' W 144°00'6521.6 010 / 20975.7 5.4 1.013.0 9.411.3
2014-Oct-22 03:00N 55°54' W 145°42'5618.5 020 / 25978.1 5.4 1.0 9.0 7.010.5
2014-Oct-22 00:00N 56°24' W 147°06'6120.4 330 / 24983.0 5.4 3.0 9.2 7.310.3
2014-Oct-21 21:00N 56°48' W 148°48'   350 / 13987.510.8 1.5 9.0 0.710.7
2014-Oct-19 00:00N 58°42' W 149°42'11919.8 060 / 5990.610.8 0.510.5 6.6 9.1
2014-Oct-18 18:00N 58°06' W 146°06'61718.7 090 / 7990.210.8 0.511.0 6.1 9.8
2014-Oct-17 09:00N 53°00' W 130°18'23119.3 100 / 35993.4 2.2 3.013.512.712.6
2014-Oct-16 21:00N 49°36' W 127°24'910.1 130 / 241007.2 5.4 3.015.013.013.1
2014-Oct-16 20:08N 49°31' W 127°13'1175.6
2014-Oct-16 20:00N 49°24' W 127°00'1 3.0 120 / 241009.4 5.4 2.515.012.513.5
2014-Oct-16 19:33N 49°24' W 126°58'1933.5
2014-Oct-16 19:00N 49°12' W 126°36'2 4.0 110 / 241010.7 5.4 2.516.112.413.9
2014-Oct-16 18:33N 49°12' W 126°33'2019.5
2014-Oct-16 17:33N 48°60' W 126°10'1918.9
2014-Oct-16 16:34N 48°48' W 125°47'1818.1
2014-Oct-16 15:34N 48°40' W 125°22'1817.9
2014-Oct-16 14:34N 48°34' W 124°57'1717.1
2014-Oct-16 13:34N 48°27' W 124°33'1817.6
2014-Oct-16 12:34N 48°21' W 124°09'1818.2
2014-Oct-16 11:33N 48°16' W 123°42'1616.0
2014-Oct-16 10:33N 48°09' W 123°21'1717.5
2014-Oct-16 09:33N 48°12' W 122°55'1817.6
2014-Oct-16 08:33N 47°60' W 122°36'1717.1
2014-Oct-16 07:33N 47°44' W 122°26'1717.0
2014-Oct-16 06:33N 47°27' W 122°24'1111.1
2014-Oct-16 05:33N 47°16' W 122°25'0 0.0
2014-Oct-16 04:33N 47°16' W 122°25'0 0.0
2014-Oct-16 03:34N 47°16' W 122°25'0 0.0
2014-Oct-16 02:33N 47°16' W 122°25'0 0.0
2014-Oct-16 01:33N 47°16' W 122°25'0 0.0
2014-Oct-16 00:34N 47°16' W 122°25'0 0.0
2014-Oct-15 23:34N 47°16' W 122°25'0 0.0
2014-Oct-15 22:33N 47°16' W 122°25'0 0.0
2014-Oct-15 21:34N 47°16' W 122°25'0 0.0
2014-Oct-15 20:33N 47°16' W 122°25'  
Track history (hours):
 
Tides and Currents Weather Stations Pressure Air Temp Water Temp Dewpoint Dewpoint Depression Visibility Wind Speed Wind Dir Waves Ship Positions

Horizon Anchorage

Owner: HORIZON LINES LLC, RALEIGH, NC. More information available from US FCC via Universal Licensing System and Coast Guard Vessel Documentation Center.

Last reported at 2014-Oct-25 20:06 UTC. Time now 2014-Oct-25 22:45 UTC.
Position N 49°31' W 127°15'.

Type: Cargo ship. MMSI: 366557000.

Date/timePositionNaut miles runAvg speedWind from/ knotsBaromVisibWave heightAir tempDewpointWater temp
2014-Oct-25 20:06N 49°31' W 127°15'1088.0
2014-Oct-25 20:00N 49°24' W 127°06'4 7.0 340 / 19992.5 5.4 2.011.5 8.713.9
2014-Oct-25 19:29N 49°24' W 127°00'1819.5
2014-Oct-25 18:34N 49°13' W 126°39'2019.7
2014-Oct-25 17:33N 49°01' W 126°14'2020.0
2014-Oct-25 16:34N 48°49' W 125°50'2020.2
2014-Oct-25 15:34N 48°40' W 125°23'2020.4
2014-Oct-25 14:34N 48°33' W 124°54'1919.2
2014-Oct-25 13:34N 48°26' W 124°27'1919.1
2014-Oct-25 12:33N 48°19' W 124°00'1818.1
2014-Oct-25 11:33N 48°15' W 123°34'1212.3
2014-Oct-25 10:34N 48°10' W 123°17'1717.1
2014-Oct-25 09:33N 48°12' W 122°52'1616.1
2014-Oct-25 08:34N 47°60' W 122°36'1818.4
2014-Oct-25 07:33N 47°42' W 122°27'1918.9
2014-Oct-25 06:34N 47°24' W 122°22'8 8.0
2014-Oct-25 05:33N 47°16' W 122°25'0 0.0
2014-Oct-25 04:33N 47°16' W 122°25'0 0.0
2014-Oct-25 03:33N 47°16' W 122°25'0 0.0
2014-Oct-25 02:33N 47°16' W 122°25'0 0.0
2014-Oct-25 01:33N 47°16' W 122°25'0 0.0
2014-Oct-25 00:33N 47°16' W 122°25'0 0.0
2014-Oct-24 23:33N 47°16' W 122°25'0 0.0
2014-Oct-24 22:33N 47°16' W 122°25'0 0.0
2014-Oct-24 21:33N 47°16' W 122°25'0 0.0
2014-Oct-24 20:32N 47°16' W 122°25'0 0.0
2014-Oct-24 18:32N 47°16' W 122°25'0 0.0
2014-Oct-24 17:32N 47°16' W 122°25'0 0.0
2014-Oct-24 16:33N 47°16' W 122°25'0 0.0
2014-Oct-24 15:32N 47°16' W 122°25'0 0.0
2014-Oct-24 14:33N 47°16' W 122°25'0 0.0
2014-Oct-24 13:33N 47°16' W 122°25'0 0.0
2014-Oct-24 12:33N 47°16' W 122°25'0 0.0
2014-Oct-24 11:33N 47°16' W 122°25'4 4.5
2014-Oct-24 10:34N 47°20' W 122°27'1717.0
2014-Oct-24 09:34N 47°37' W 122°28'1818.5
2014-Oct-24 08:34N 47°56' W 122°31'1919.0
2014-Oct-24 07:34N 48°11' W 122°49'1918.8
2014-Oct-24 06:34N 48°11' W 123°17'1313.3
2014-Oct-24 05:33N 48°13' W 123°36'1515.3
2014-Oct-24 04:33N 48°15' W 123°59'1615.5
2014-Oct-24 03:33N 48°21' W 124°21'1414.0
2014-Oct-24 02:33N 48°27' W 124°40'1514.6
2014-Oct-24 01:33N 48°29' W 125°01'1413.8
2014-Oct-24 00:33N 48°34' W 125°21'611.2
2014-Oct-24 00:00N 48°36' W 125°30'819.2 160 / 51009.6 5.4 2.013.1 8.515.2
2014-Oct-23 23:33N 48°42' W 125°39'1616.1
2014-Oct-23 22:33N 48°51' W 125°59'1918.5
2014-Oct-23 21:33N 49°01' W 126°23'5 8.5
2014-Oct-23 21:00N 49°06' W 126°24'1432.5 130 / 91007.010.8 2.512.5 8.814.0
2014-Oct-23 20:33N 49°11' W 126°44'1716.6
2014-Oct-23 19:34N 49°20' W 127°05'1912.0
2014-Oct-23 18:00N 49°30' W 127°30'23519.6 240 / 181004.510.8 1.013.0 9.414.2
2014-Oct-23 06:00N 51°30' W 132°48'12621.0 220 / 22993.010.8 1.011.0 3.813.6
2014-Oct-23 00:00N 52°30' W 135°48'10016.6 110 / 19987.5 5.4 3.511.5 8.713.1
2014-Oct-22 18:00N 53°12' W 138°18'23919.9 220 / 15989.710.8 1.012.0 2.511.5
2014-Oct-22 06:00N 55°24' W 144°00'6521.6 010 / 20975.7 5.4 1.013.0 9.411.3
2014-Oct-22 03:00N 55°54' W 145°42'5618.5 020 / 25978.1 5.4 1.0 9.0 7.010.5
2014-Oct-22 00:00N 56°24' W 147°06'6120.4 330 / 24983.0 5.4 3.0 9.2 7.310.3
2014-Oct-21 21:00N 56°48' W 148°48'   350 / 13987.510.8 1.5 9.0 0.710.7
2014-Oct-19 00:00N 58°42' W 149°42'11919.8 060 / 5990.610.8 0.510.5 6.6 9.1
2014-Oct-18 18:00N 58°06' W 146°06'61718.7 090 / 7990.210.8 0.511.0 6.1 9.8
2014-Oct-17 09:00N 53°00' W 130°18'23119.3 100 / 35993.4 2.2 3.013.512.712.6
2014-Oct-16 21:00N 49°36' W 127°24'910.1 130 / 241007.2 5.4 3.015.013.013.1
2014-Oct-16 20:08N 49°31' W 127°13'1175.6
2014-Oct-16 20:00N 49°24' W 127°00'1 3.0 120 / 241009.4 5.4 2.515.012.513.5
2014-Oct-16 19:33N 49°24' W 126°58'1933.5
2014-Oct-16 19:00N 49°12' W 126°36'2 4.0 110 / 241010.7 5.4 2.516.112.413.9
2014-Oct-16 18:33N 49°12' W 126°33'2019.5
2014-Oct-16 17:33N 48°60' W 126°10'1918.9
2014-Oct-16 16:34N 48°48' W 125°47'1818.1
2014-Oct-16 15:34N 48°40' W 125°22'1817.9
2014-Oct-16 14:34N 48°34' W 124°57'1717.1
2014-Oct-16 13:34N 48°27' W 124°33'1817.6
2014-Oct-16 12:34N 48°21' W 124°09'1818.2
2014-Oct-16 11:33N 48°16' W 123°42'1616.0
2014-Oct-16 10:33N 48°09' W 123°21'1717.5
2014-Oct-16 09:33N 48°12' W 122°55'1817.6
2014-Oct-16 08:33N 47°60' W 122°36'1717.1
2014-Oct-16 07:33N 47°44' W 122°26'1717.0
2014-Oct-16 06:33N 47°27' W 122°24'1111.1
2014-Oct-16 05:33N 47°16' W 122°25'0 0.0
2014-Oct-16 04:33N 47°16' W 122°25'0 0.0
2014-Oct-16 03:34N 47°16' W 122°25'0 0.0
2014-Oct-16 02:33N 47°16' W 122°25'0 0.0
2014-Oct-16 01:33N 47°16' W 122°25'0 0.0
2014-Oct-16 00:34N 47°16' W 122°25'0 0.0
2014-Oct-15 23:34N 47°16' W 122°25'0 0.0
2014-Oct-15 22:33N 47°16' W 122°25'0 0.0
2014-Oct-15 21:34N 47°16' W 122°25'0 0.0
2014-Oct-15 20:33N 47°16' W 122°25'  

Dump ship's entire track history